Time;durP1;ratioP1;P1;durP2;ratioP2;P2;SDS_P1;SDS_P2;PMS_P1;PMS_P2;Temp;Humidity;BMP_temperature;BMP_pressure;BME280_temperature;BME280_humidity;BME280_pressure;Samples;Min_cycle;Max_cycle;Signal;HPM_P1;HPM_P2
2024/03/07 00:01:20;;;;;;;42.57;23.27;;;4.00;99.90;;;;;;4998385;28;20218;-65
2024/03/07 00:03:50;;;;;;;41.30;23.53;;;4.00;99.90;;;;;;4992269;28;20310;-65
2024/03/07 00:06:18;;;;;;;42.97;22.97;;;3.90;99.90;;;;;;4997478;28;20223;-65
2024/03/07 00:08:46;;;;;;;46.33;22.97;;;3.80;99.90;;;;;;4989213;28;20233;-65
2024/03/07 00:11:15;;;;;;;42.57;23.07;;;3.80;99.90;;;;;;4992162;28;20205;-65
2024/03/07 00:13:44;;;;;;;45.50;24.03;;;3.70;99.90;;;;;;4996691;28;20221;-65
2024/03/07 00:16:13;;;;;;;41.30;23.87;;;3.70;99.90;;;;;;4999930;28;20210;-65
2024/03/07 00:18:41;;;;;;;46.53;23.63;;;3.60;99.90;;;;;;4996573;28;20219;-65
2024/03/07 00:21:09;;;;;;;43.13;23.30;;;3.60;99.90;;;;;;4996628;28;20225;-65
2024/03/07 00:23:38;;;;;;;41.50;23.60;;;3.60;99.90;;;;;;4996143;28;20310;-65
2024/03/07 00:26:07;;;;;;;40.53;23.10;;;3.60;99.90;;;;;;5012418;28;20663;-65
2024/03/07 00:28:39;;;;;;;40.70;23.23;;;3.60;99.90;;;;;;5007440;28;20249;-64
2024/03/07 00:31:09;;;;;;;40.97;23.10;;;3.50;99.90;;;;;;5014934;28;20276;-65
2024/03/07 00:33:37;;;;;;;49.10;24.50;;;3.50;99.90;;;;;;5016934;28;20220;-65
2024/03/07 00:36:26;;;;;;;43.70;24.00;;;3.40;99.90;;;;;;5016413;28;20243;-65
2024/03/07 00:38:59;;;;;;;41.63;24.00;;;3.40;99.90;;;;;;5014867;28;20241;-65
2024/03/07 00:41:28;;;;;;;43.40;23.77;;;3.40;99.90;;;;;;5016875;28;20582;-65
2024/03/07 00:43:56;;;;;;;42.10;23.90;;;3.40;99.90;;;;;;5018926;28;20210;-65
2024/03/07 00:46:26;;;;;;;46.30;24.77;;;3.30;99.90;;;;;;5014240;28;20233;-65
2024/03/07 00:48:54;;;;;;;51.00;26.37;;;3.30;99.90;;;;;;5012561;28;20237;-65
2024/03/07 00:51:23;;;;;;;50.93;27.83;;;3.30;99.90;;;;;;5014076;28;20304;-65
2024/03/07 00:53:51;;;;;;;51.37;27.40;;;3.40;99.90;;;;;;5013384;28;20245;-65
2024/03/07 00:56:20;;;;;;;50.37;26.47;;;3.40;99.90;;;;;;5015705;28;20202;-65
2024/03/07 00:58:49;;;;;;;49.07;26.70;;;3.40;99.90;;;;;;5015261;28;20685;-65
2024/03/07 01:01:19;;;;;;;47.63;25.93;;;3.30;99.90;;;;;;5011595;28;20237;-65
2024/03/07 01:03:49;;;;;;;55.10;28.10;;;3.30;99.90;;;;;;5013964;28;20218;-65
2024/03/07 01:06:17;;;;;;;49.90;26.13;;;3.20;99.90;;;;;;5020088;28;20217;-65
2024/03/07 01:08:45;;;;;;;48.40;26.20;;;3.20;99.90;;;;;;5011037;28;20252;-65
2024/03/07 01:11:14;;;;;;;55.60;28.63;;;3.20;99.90;;;;;;5016456;28;20664;-65
2024/03/07 01:13:43;;;;;;;61.23;30.77;;;3.20;99.90;;;;;;5044191;28;20218;-65
2024/03/07 01:16:11;;;;;;;66.73;31.27;;;3.20;99.90;;;;;;5017012;28;20231;-65
2024/03/07 01:18:39;;;;;;;61.07;31.03;;;3.30;99.90;;;;;;5013421;28;20253;-65
2024/03/07 01:21:09;;;;;;;67.03;31.60;;;3.30;99.90;;;;;;5016578;28;20256;-65
2024/03/07 01:23:37;;;;;;;64.50;30.67;;;3.30;99.90;;;;;;5008004;28;20198;-65
2024/03/07 01:26:06;;;;;;;62.47;30.73;;;3.30;99.90;;;;;;5017453;28;20606;-65
2024/03/07 01:28:36;;;;;;;68.57;31.23;;;3.30;99.90;;;;;;5002918;28;20633;-65
2024/03/07 01:31:04;;;;;;;63.83;32.27;;;3.30;99.90;;;;;;5002683;28;20229;-65
2024/03/07 01:33:33;;;;;;;67.20;31.67;;;3.20;99.90;;;;;;4999958;28;20222;-65
2024/03/07 01:36:01;;;;;;;72.87;32.90;;;3.20;99.90;;;;;;4997462;28;20318;-65
2024/03/07 01:38:31;;;;;;;64.10;31.83;;;3.20;99.90;;;;;;4993647;28;20202;-65
2024/03/07 01:41:00;;;;;;;68.63;32.17;;;3.10;99.90;;;;;;4999566;28;20202;-65
2024/03/07 01:43:31;;;;;;;67.00;32.30;;;3.10;99.90;;;;;;5011799;28;20709;-65
2024/03/07 01:45:59;;;;;;;75.03;35.20;;;3.10;99.90;;;;;;5020673;28;20221;-65
2024/03/07 01:48:29;;;;;;;77.17;33.73;;;3.10;99.90;;;;;;5015185;28;20309;-65
2024/03/07 01:50:58;;;;;;;73.53;33.53;;;3.00;99.90;;;;;;5018333;28;20646;-65
2024/03/07 01:53:28;;;;;;;71.23;33.70;;;3.00;99.90;;;;;;5017998;28;20199;-65
2024/03/07 01:55:58;;;;;;;77.60;34.60;;;3.00;99.90;;;;;;5014137;28;20198;-65
2024/03/07 01:58:27;;;;;;;80.60;34.93;;;3.00;99.90;;;;;;5015786;28;20693;-65
2024/03/07 02:00:56;;;;;;;79.97;34.70;;;3.00;99.90;;;;;;5023126;28;20225;-65
2024/03/07 02:03:24;;;;;;;96.13;38.93;;;3.00;99.90;;;;;;5019224;28;20704;-65
2024/03/07 02:05:53;;;;;;;91.87;39.13;;;3.10;99.90;;;;;;5018058;28;20601;-65
2024/03/07 02:08:21;;;;;;;90.97;37.80;;;3.10;99.90;;;;;;5016424;28;20848;-66
2024/03/07 02:10:50;;;;;;;82.93;36.73;;;3.10;99.90;;;;;;5013748;28;20221;-65
2024/03/07 02:13:19;;;;;;;90.73;37.13;;;3.00;99.90;;;;;;5013348;28;20280;-65
2024/03/07 02:15:48;;;;;;;96.43;38.97;;;3.00;99.90;;;;;;5014895;28;20665;-65
2024/03/07 02:18:16;;;;;;;97.87;40.10;;;3.00;99.90;;;;;;5018626;28;20235;-65
2024/03/07 02:20:46;;;;;;;99.27;40.00;;;3.00;99.90;;;;;;5019339;28;20300;-65
2024/03/07 02:23:15;;;;;;;98.40;40.33;;;3.00;99.90;;;;;;5017928;28;20653;-65
2024/03/07 02:25:44;;;;;;;105.50;41.67;;;3.00;99.90;;;;;;5018124;28;20218;-65
2024/03/07 02:28:13;;;;;;;91.30;40.03;;;3.00;99.90;;;;;;5021458;28;20221;-65
2024/03/07 02:30:41;;;;;;;95.07;39.73;;;2.90;99.90;;;;;;5011784;28;20616;-65
2024/03/07 02:33:09;;;;;;;103.10;40.43;;;2.90;99.90;;;;;;5012235;28;20578;-65
2024/03/07 02:35:38;;;;;;;102.93;38.80;;;2.80;99.90;;;;;;5013791;28;20521;-65
2024/03/07 02:38:08;;;;;;;97.50;40.43;;;2.80;99.90;;;;;;5013161;28;20194;-65
2024/03/07 02:40:37;;;;;;;108.23;42.07;;;2.80;99.90;;;;;;5014626;28;20209;-65
2024/03/07 02:43:07;;;;;;;99.23;41.97;;;2.80;99.90;;;;;;5016805;28;20244;-65
2024/03/07 02:45:35;;;;;;;100.93;41.53;;;2.80;99.90;;;;;;5015866;28;20234;-65
2024/03/07 02:48:05;;;;;;;106.90;41.70;;;2.70;99.90;;;;;;5012608;28;20218;-65
2024/03/07 02:50:34;;;;;;;108.67;40.77;;;2.70;99.90;;;;;;5004895;28;20669;-65
2024/03/07 02:53:03;;;;;;;110.63;41.83;;;2.70;99.90;;;;;;5014520;28;20198;-65
2024/03/07 02:55:34;;;;;;;131.43;46.20;;;2.80;99.90;;;;;;5017361;28;20237;-65
2024/03/07 02:58:03;;;;;;;119.90;46.70;;;2.90;99.90;;;;;;5017474;28;20281;-65
2024/03/07 03:00:31;;;;;;;129.37;47.60;;;3.00;99.90;;;;;;5015892;28;20308;-65
2024/03/07 03:02:59;;;;;;;133.97;46.30;;;3.00;99.90;;;;;;5011571;28;20855;-65
2024/03/07 03:05:27;;;;;;;125.63;46.97;;;3.00;99.90;;;;;;5016952;28;20210;-65
2024/03/07 03:07:56;;;;;;;127.87;47.17;;;3.00;99.90;;;;;;5013507;28;20341;-65
2024/03/07 03:10:28;;;;;;;127.23;47.63;;;2.90;99.90;;;;;;5015286;28;20221;-65
2024/03/07 03:13:00;;;;;;;132.20;48.13;;;2.90;99.90;;;;;;5013432;28;20222;-65
2024/03/07 03:15:30;;;;;;;131.23;48.10;;;2.90;99.90;;;;;;5018220;28;20224;-65
2024/03/07 03:17:59;;;;;;;131.37;47.70;;;2.80;99.90;;;;;;5012801;28;20559;-65
2024/03/07 03:20:33;;;;;;;123.13;47.10;;;2.80;99.90;;;;;;5015400;28;20213;-65
2024/03/07 03:23:03;;;;;;;133.00;46.47;;;2.80;99.90;;;;;;5015104;28;20208;-65
2024/03/07 03:25:35;;;;;;;134.77;47.83;;;2.80;99.90;;;;;;5012508;28;20217;-65
2024/03/07 03:28:06;;;;;;;138.50;48.70;;;2.80;99.90;;;;;;5018794;28;20224;-65
2024/03/07 03:30:34;;;;;;;139.33;49.37;;;2.70;99.90;;;;;;5016499;28;20606;-65
2024/03/07 03:33:03;;;;;;;153.40;50.87;;;2.70;99.90;;;;;;5015660;28;20305;-65
2024/03/07 03:35:31;;;;;;;150.97;51.23;;;2.80;99.90;;;;;;5016081;28;20276;-65
2024/03/07 03:38:00;;;;;;;137.37;50.57;;;2.90;99.90;;;;;;5010803;28;20197;-65
2024/03/07 03:40:29;;;;;;;144.43;51.47;;;2.90;99.90;;;;;;5016031;28;20218;-65
2024/03/07 03:42:57;;;;;;;143.53;51.50;;;2.80;99.90;;;;;;5015487;28;20214;-65
2024/03/07 03:45:27;;;;;;;160.00;53.60;;;2.90;99.90;;;;;;5012856;28;20229;-65
2024/03/07 03:47:55;;;;;;;157.00;51.57;;;2.90;99.90;;;;;;5017533;28;20224;-65
2024/03/07 03:50:24;;;;;;;160.40;52.70;;;2.90;99.90;;;;;;5005123;28;20189;-65
2024/03/07 03:52:53;;;;;;;162.23;53.63;;;2.90;99.90;;;;;;5017129;28;20218;-65
2024/03/07 03:55:22;;;;;;;144.40;49.77;;;2.80;99.90;;;;;;5016557;28;20305;-66
2024/03/07 03:57:50;;;;;;;155.80;50.27;;;2.80;99.90;;;;;;5016208;28;20225;-65
2024/03/07 04:00:22;;;;;;;152.57;49.40;;;2.70;99.90;;;;;;5016141;28;20308;-65
2024/03/07 04:02:52;;;;;;;154.87;48.67;;;2.60;99.90;;;;;;5013462;28;20230;-65
2024/03/07 04:05:21;;;;;;;150.80;50.07;;;2.60;99.90;;;;;;5014994;28;20270;-65
2024/03/07 04:07:50;;;;;;;154.83;50.90;;;2.50;99.90;;;;;;4987602;28;20257;-65
2024/03/07 04:10:19;;;;;;;163.70;51.17;;;2.50;99.90;;;;;;4991335;28;20220;-65
2024/03/07 04:12:47;;;;;;;162.23;51.90;;;2.50;99.90;;;;;;4993851;28;20300;-65
2024/03/07 04:15:17;;;;;;;145.90;49.27;;;2.50;99.90;;;;;;4993662;28;20272;-65
2024/03/07 04:17:47;;;;;;;167.10;53.40;;;2.50;99.90;;;;;;4999403;28;20715;-65
2024/03/07 04:20:18;;;;;;;181.90;54.07;;;2.60;99.90;;;;;;4997105;28;20202;-65
2024/03/07 04:22:48;;;;;;;167.77;53.90;;;2.60;99.90;;;;;;4991445;28;20320;-65
2024/03/07 04:25:17;;;;;;;174.47;54.50;;;2.70;99.90;;;;;;4992425;28;20295;-65
2024/03/07 04:27:45;;;;;;;163.07;51.80;;;2.60;99.90;;;;;;4994092;28;20226;-65
2024/03/07 04:30:15;;;;;;;155.10;48.83;;;2.50;99.90;;;;;;4994492;28;20275;-65
2024/03/07 04:32:45;;;;;;;150.70;47.40;;;2.40;99.90;;;;;;4996943;28;20225;-65
2024/03/07 04:35:13;;;;;;;161.23;51.53;;;2.30;99.90;;;;;;5001708;28;20190;-66
2024/03/07 04:37:47;;;;;;;157.87;48.93;;;2.30;99.90;;;;;;5001616;28;20316;-65
2024/03/07 04:40:16;;;;;;;159.53;50.07;;;2.20;99.90;;;;;;4997582;28;20228;-65
2024/03/07 04:42:48;;;;;;;162.30;49.50;;;2.20;99.90;;;;;;4999585;28;20609;-65
2024/03/07 04:45:17;;;;;;;179.23;51.87;;;2.20;99.90;;;;;;4997399;28;20213;-65
2024/03/07 04:47:47;;;;;;;172.37;52.40;;;2.20;99.90;;;;;;4999524;28;20590;-65
2024/03/07 04:50:17;;;;;;;168.03;52.23;;;2.20;99.90;;;;;;4994094;28;20199;-65
2024/03/07 04:52:49;;;;;;;178.90;53.30;;;2.20;99.90;;;;;;4997167;28;20233;-65
2024/03/07 04:55:18;;;;;;;189.47;54.27;;;2.30;99.90;;;;;;4995579;28;20237;-65
2024/03/07 04:57:47;;;;;;;185.53;54.33;;;2.30;99.90;;;;;;4991476;28;20350;-65
2024/03/07 05:00:19;;;;;;;187.00;54.23;;;2.30;99.90;;;;;;4996569;28;20725;-65
2024/03/07 05:02:51;;;;;;;200.97;54.97;;;2.30;99.90;;;;;;4994220;28;20230;-65
2024/03/07 05:05:21;;;;;;;209.50;55.70;;;2.40;99.90;;;;;;5001198;28;20200;-65
2024/03/07 05:07:53;;;;;;;203.57;57.77;;;2.40;99.90;;;;;;5019939;28;20761;-65
2024/03/07 05:10:21;;;;;;;209.07;58.57;;;2.40;99.90;;;;;;5020387;28;20225;-65
2024/03/07 05:12:50;;;;;;;216.90;60.10;;;2.40;99.90;;;;;;5015312;28;20257;-65
2024/03/07 05:15:19;;;;;;;226.40;59.57;;;2.50;99.90;;;;;;5020200;28;20318;-65
2024/03/07 05:17:47;;;;;;;224.50;62.10;;;2.60;99.90;;;;;;5018337;28;20233;-65
2024/03/07 05:20:16;;;;;;;257.47;64.13;;;2.70;99.90;;;;;;5018531;28;20198;-65
2024/03/07 05:22:50;;;;;;;236.70;62.17;;;2.80;99.90;;;;;;5016202;28;20902;-65
2024/03/07 05:25:21;;;;;;;221.90;61.03;;;2.80;99.90;;;;;;5020299;28;20240;-65
2024/03/07 05:27:51;;;;;;;225.77;59.43;;;2.70;99.90;;;;;;5014659;28;20249;-65
2024/03/07 05:30:23;;;;;;;246.10;63.40;;;2.70;99.90;;;;;;5014877;28;20299;-65
2024/03/07 05:32:51;;;;;;;253.80;64.87;;;2.80;99.90;;;;;;5012812;28;20229;-65
2024/03/07 05:35:20;;;;;;;260.57;64.70;;;2.90;99.90;;;;;;5017443;28;20649;-65
2024/03/07 05:37:50;;;;;;;240.33;61.73;;;2.90;99.90;;;;;;5017867;28;20280;-65
2024/03/07 05:40:21;;;;;;;258.00;63.53;;;2.90;99.90;;;;;;5004484;28;20231;-65
2024/03/07 05:42:50;;;;;;;271.20;66.33;;;2.90;99.90;;;;;;4996842;28;20242;-65
2024/03/07 05:45:18;;;;;;;253.50;63.47;;;2.90;99.90;;;;;;5000493;28;20221;-65
2024/03/07 05:47:48;;;;;;;243.70;61.70;;;2.90;99.90;;;;;;4997758;28;20226;-65
2024/03/07 05:50:18;;;;;;;267.87;63.97;;;2.90;99.90;;;;;;4998526;28;21105;-65
2024/03/07 05:52:48;;;;;;;270.47;64.50;;;2.90;99.90;;;;;;4993748;28;20309;-65
2024/03/07 05:55:18;;;;;;;253.10;62.47;;;2.80;99.90;;;;;;4994901;28;20242;-65
2024/03/07 05:57:49;;;;;;;273.27;62.47;;;2.90;99.90;;;;;;5009580;28;20226;-65
2024/03/07 06:00:26;;;;;;;281.10;66.23;;;2.90;99.90;;;;;;5014745;28;20814;-65
2024/03/07 06:02:57;;;;;;;269.53;66.93;;;2.90;99.90;;;;;;5011700;28;20252;-65
2024/03/07 06:05:26;;;;;;;280.70;68.43;;;3.00;99.90;;;;;;5013067;28;20280;-65
2024/03/07 06:07:56;;;;;;;285.57;66.37;;;3.00;99.90;;;;;;5016172;28;20772;-65
2024/03/07 06:10:25;;;;;;;285.87;66.97;;;3.00;99.90;;;;;;5022042;28;20214;-65
2024/03/07 06:12:55;;;;;;;283.93;65.37;;;3.10;99.90;;;;;;5013956;28;20727;-65
2024/03/07 06:15:39;;;;;;;308.33;69.67;;;3.20;99.90;;;;;;5015742;28;20727;-65
2024/03/07 06:18:10;;;;;;;310.27;70.53;;;3.30;99.90;;;;;;5022114;28;20733;-65
2024/03/07 06:20:40;;;;;;;314.47;71.03;;;3.40;99.90;;;;;;5012974;28;20201;-65
2024/03/07 06:23:11;;;;;;;342.37;75.00;;;3.50;99.90;;;;;;5015737;28;20206;-65
2024/03/07 06:25:47;;;;;;;345.20;74.07;;;3.50;99.90;;;;;;5007352;28;20239;-65
2024/03/07 06:28:18;;;;;;;370.00;73.83;;;3.60;99.90;;;;;;5015387;28;20379;-64
2024/03/07 06:30:47;;;;;;;357.50;73.67;;;3.60;99.90;;;;;;5017462;28;20245;-65
2024/03/07 06:33:17;;;;;;;363.53;73.33;;;3.70;99.90;;;;;;4999297;28;20241;-65
2024/03/07 06:35:51;;;;;;;394.67;75.20;;;3.70;99.90;;;;;;5012860;28;20221;-64
2024/03/07 06:38:21;;;;;;;395.50;74.83;;;3.70;99.90;;;;;;5013622;28;20213;-64
2024/03/07 06:40:50;;;;;;;412.23;76.83;;;3.80;99.90;;;;;;5012090;28;20275;-64
2024/03/07 06:43:19;;;;;;;410.30;74.73;;;3.80;99.90;;;;;;4995613;28;20258;-64
2024/03/07 06:45:49;;;;;;;449.03;76.13;;;3.80;99.90;;;;;;4992426;28;20304;-64
2024/03/07 06:48:18;;;;;;;410.17;72.57;;;3.80;99.90;;;;;;4981145;28;20285;-64
2024/03/07 06:50:47;;;;;;;513.07;77.37;;;3.80;99.90;;;;;;4989702;28;20225;-64
2024/03/07 06:53:15;;;;;;;447.43;76.47;;;3.90;99.90;;;;;;5018600;28;20248;-64
2024/03/07 06:55:44;;;;;;;400.70;74.37;;;3.90;99.90;;;;;;5014770;28;20702;-65
2024/03/07 06:58:12;;;;;;;419.80;73.93;;;3.90;99.90;;;;;;5017260;28;20217;-65
2024/03/07 07:00:42;;;;;;;435.43;73.03;;;3.90;99.90;;;;;;5012403;28;20229;-65
2024/03/07 07:03:12;;;;;;;413.80;72.90;;;4.00;99.90;;;;;;5010111;28;20252;-66
2024/03/07 07:05:41;;;;;;;382.63;69.57;;;4.00;99.90;;;;;;5014584;28;20194;-66
2024/03/07 07:08:10;;;;;;;415.43;74.00;;;4.00;99.90;;;;;;5012606;28;20600;-66
2024/03/07 07:10:40;;;;;;;412.57;75.27;;;4.00;99.90;;;;;;5015105;28;20222;-66
2024/03/07 07:13:08;;;;;;;396.30;73.97;;;4.00;99.90;;;;;;5017313;28;20831;-66
2024/03/07 07:15:37;;;;;;;371.80;71.43;;;4.10;99.90;;;;;;5013677;28;20338;-66
2024/03/07 07:18:10;;;;;;;366.80;72.87;;;4.10;99.90;;;;;;5014084;28;20724;-66
2024/03/07 07:20:39;;;;;;;363.00;72.97;;;4.10;99.90;;;;;;5013655;28;20194;-66
2024/03/07 07:23:10;;;;;;;367.47;73.47;;;4.10;99.90;;;;;;5013674;28;20296;-66
2024/03/07 07:25:39;;;;;;;378.77;73.07;;;4.20;99.90;;;;;;5018424;28;20222;-66
2024/03/07 07:28:07;;;;;;;315.13;65.53;;;4.20;99.90;;;;;;5016060;28;20223;-66
2024/03/07 07:30:37;;;;;;;308.60;66.40;;;4.20;99.90;;;;;;5013960;28;20249;-66
2024/03/07 07:33:07;;;;;;;333.50;69.57;;;4.20;99.90;;;;;;5009346;28;20226;-66
2024/03/07 07:35:35;;;;;;;337.30;70.80;;;4.30;99.90;;;;;;5016085;28;20236;-65
2024/03/07 07:38:06;;;;;;;335.60;71.27;;;4.40;99.90;;;;;;4999364;28;20190;-66
2024/03/07 07:40:35;;;;;;;352.33;74.30;;;4.40;99.90;;;;;;4999381;28;20225;-66
2024/03/07 07:43:04;;;;;;;366.63;70.70;;;4.40;99.90;;;;;;4998140;28;20588;-66
2024/03/07 07:45:35;;;;;;;335.27;68.07;;;4.40;99.90;;;;;;4995375;28;20245;-66
2024/03/07 07:48:05;;;;;;;320.80;67.03;;;4.40;99.90;;;;;;4999696;28;20222;-66
2024/03/07 07:50:35;;;;;;;348.87;69.30;;;4.50;99.90;;;;;;4994485;28;20218;-66
2024/03/07 07:53:07;;;;;;;312.40;67.20;;;4.50;99.90;;;;;;5004055;28;20212;-66
2024/03/07 07:55:36;;;;;;;305.67;67.20;;;4.50;99.90;;;;;;4991592;28;20226;-66
2024/03/07 07:58:04;;;;;;;366.13;69.53;;;4.50;99.90;;;;;;4994568;28;20214;-66
2024/03/07 08:00:34;;;;;;;315.50;70.03;;;4.40;99.90;;;;;;4998522;28;20986;-66
2024/03/07 08:03:05;;;;;;;332.77;66.90;;;4.50;99.90;;;;;;4992602;28;20276;-66
2024/03/07 08:05:36;;;;;;;319.20;66.97;;;4.50;99.90;;;;;;4992007;28;20241;-66
2024/03/07 08:08:06;;;;;;;338.03;66.80;;;4.50;99.90;;;;;;4996020;28;20341;-66
2024/03/07 08:10:36;;;;;;;316.17;65.67;;;4.60;99.90;;;;;;4990249;28;20772;-66
2024/03/07 08:13:07;;;;;;;305.40;65.30;;;4.50;99.90;;;;;;4994760;28;20257;-66
2024/03/07 08:15:36;;;;;;;307.40;63.33;;;4.50;99.90;;;;;;4998515;28;20591;-66
2024/03/07 08:18:08;;;;;;;291.53;62.73;;;4.50;99.90;;;;;;5000869;28;20227;-66
2024/03/07 08:20:40;;;;;;;307.10;67.23;;;4.60;99.90;;;;;;4998001;28;20542;-66
2024/03/07 08:23:10;;;;;;;318.77;65.87;;;4.60;99.90;;;;;;4996519;28;20198;-66
2024/03/07 08:25:40;;;;;;;284.33;64.57;;;4.80;99.90;;;;;;4996438;28;20219;-66
2024/03/07 08:28:09;;;;;;;272.10;62.00;;;5.00;99.90;;;;;;5000606;28;20227;-66
2024/03/07 08:30:37;;;;;;;290.83;64.67;;;5.10;99.90;;;;;;4993543;28;20307;-66
2024/03/07 08:33:07;;;;;;;284.93;64.70;;;5.20;99.90;;;;;;4997356;28;20276;-66
2024/03/07 08:35:36;;;;;;;274.93;64.83;;;5.30;99.90;;;;;;4997468;28;20297;-66
2024/03/07 08:38:08;;;;;;;245.37;63.20;;;5.50;99.90;;;;;;5006092;28;20186;-66
2024/03/07 08:40:37;;;;;;;239.90;59.37;;;5.60;99.90;;;;;;5001079;28;20222;-66
2024/03/07 08:43:07;;;;;;;231.50;60.30;;;5.60;99.90;;;;;;4996544;28;20336;-66
2024/03/07 08:45:36;;;;;;;230.17;58.70;;;5.50;99.90;;;;;;5002852;28;20809;-66
2024/03/07 08:48:07;;;;;;;217.87;57.20;;;5.60;99.90;;;;;;5005582;28;20696;-66
2024/03/07 08:50:37;;;;;;;196.43;56.50;;;5.60;99.90;;;;;;5002085;28;20830;-66
2024/03/07 08:53:08;;;;;;;188.37;54.30;;;5.70;99.90;;;;;;4997822;28;20195;-66
2024/03/07 08:55:37;;;;;;;182.53;51.83;;;5.80;99.90;;;;;;5002102;28;20225;-66
2024/03/07 08:58:07;;;;;;;165.60;51.50;;;5.70;99.90;;;;;;5001939;28;20224;-66
2024/03/07 09:00:39;;;;;;;161.13;50.80;;;5.70;99.90;;;;;;5001627;28;20277;-66
2024/03/07 09:03:09;;;;;;;156.50;49.17;;;5.90;99.90;;;;;;5003467;28;20214;-66
2024/03/07 09:05:40;;;;;;;154.90;49.10;;;6.10;99.90;;;;;;4999152;28;20194;-66
2024/03/07 09:08:11;;;;;;;140.23;46.43;;;6.10;99.90;;;;;;5002618;28;20234;-66
2024/03/07 09:10:41;;;;;;;131.33;45.40;;;5.90;99.90;;;;;;5001931;28;20229;-67
2024/03/07 09:13:12;;;;;;;131.90;44.70;;;5.90;99.90;;;;;;4998077;28;20562;-66
2024/03/07 09:15:40;;;;;;;109.13;41.50;;;5.90;99.90;;;;;;4998376;28;20214;-67
2024/03/07 09:18:08;;;;;;;116.80;43.20;;;5.90;99.90;;;;;;5001330;28;20234;-66
2024/03/07 09:20:38;;;;;;;114.67;41.20;;;6.00;99.90;;;;;;5003016;28;20230;-66
2024/03/07 09:23:09;;;;;;;120.80;42.77;;;6.00;99.90;;;;;;5000098;28;20210;-66
2024/03/07 09:25:39;;;;;;;117.87;42.70;;;6.20;99.90;;;;;;4996276;28;20268;-66
2024/03/07 09:28:08;;;;;;;117.30;44.03;;;6.30;99.90;;;;;;5000537;28;20219;-66
2024/03/07 09:30:38;;;;;;;107.93;40.27;;;6.80;99.90;;;;;;5001951;28;20215;-66
2024/03/07 09:33:11;;;;;;;99.73;38.60;;;7.30;99.90;;;;;;5000609;28;20233;-66
2024/03/07 09:35:40;;;;;;;100.60;40.77;;;7.30;99.90;;;;;;5003308;28;20198;-66
2024/03/07 09:38:09;;;;;;;104.03;40.53;;;7.30;99.90;;;;;;5001728;28;20213;-66
2024/03/07 09:40:38;;;;;;;98.80;38.63;;;7.50;99.90;;;;;;5003654;28;20812;-66
2024/03/07 09:43:10;;;;;;;93.73;39.23;;;7.60;99.90;;;;;;4999224;28;20268;-65
2024/03/07 09:45:42;;;;;;;95.13;39.07;;;7.70;99.90;;;;;;4999997;28;20251;-65
2024/03/07 09:48:15;;;;;;;87.93;38.17;;;7.80;99.90;;;;;;4994732;28;20218;-65
2024/03/07 09:50:47;;;;;;;85.60;36.60;;;8.00;99.90;;;;;;5000545;28;20333;-65
2024/03/07 09:53:18;;;;;;;88.77;37.97;;;8.30;99.90;;;;;;4999308;28;20198;-64
2024/03/07 09:55:48;;;;;;;84.03;37.47;;;8.60;99.90;;;;;;4999492;28;20226;-65
2024/03/07 09:58:20;;;;;;;87.33;36.87;;;8.90;99.90;;;;;;5000198;28;20230;-65
2024/03/07 10:00:50;;;;;;;83.80;36.93;;;9.30;99.90;;;;;;5000280;28;20257;-65
2024/03/07 10:03:23;;;;;;;79.60;36.50;;;9.60;99.90;;;;;;4998011;28;20296;-65
2024/03/07 10:05:53;;;;;;;81.57;36.10;;;10.00;86.50;;;;;;4998447;28;20375;-65
2024/03/07 10:08:23;;;;;;;82.27;36.83;;;10.10;86.00;;;;;;4996179;28;20317;-65
2024/03/07 10:10:55;;;;;;;81.23;36.90;;;10.40;56.90;;;;;;5018073;28;20218;-65
2024/03/07 10:13:25;;;;;;;82.00;37.53;;;10.60;50.70;;;;;;5006601;28;20225;-65
2024/03/07 10:15:59;;;;;;;81.73;36.90;;;10.80;66.40;;;;;;4997922;28;20300;-65
2024/03/07 10:18:29;;;;;;;74.10;36.60;;;11.00;42.70;;;;;;4998321;28;20284;-65
2024/03/07 10:20:58;;;;;;;75.90;35.07;;;11.40;42.20;;;;;;4992211;28;20225;-65
2024/03/07 10:23:27;;;;;;;70.23;34.20;;;12.00;13.10;;;;;;4998018;28;20297;-65
2024/03/07 10:25:57;;;;;;;73.63;34.53;;;12.10;1.00;;;;;;4995493;28;20202;-65
2024/03/07 10:28:27;;;;;;;63.90;32.13;;;12.30;1.00;;;;;;4995467;28;20585;-65
2024/03/07 10:30:55;;;;;;;61.77;32.23;;;12.50;1.00;;;;;;4995657;28;20231;-66
2024/03/07 10:33:28;;;;;;;64.70;33.10;;;12.30;1.00;;;;;;4992741;28;20222;-65
2024/03/07 10:35:57;;;;;;;63.53;32.40;;;12.10;1.00;;;;;;4995719;28;20275;-65
2024/03/07 10:38:25;;;;;;;59.40;30.97;;;12.30;1.00;;;;;;4999631;28;20197;-65
2024/03/07 10:40:56;;;;;;;59.67;30.77;;;12.50;1.00;;;;;;4995763;28;20182;-65
2024/03/07 10:43:26;;;;;;;61.40;31.23;;;12.80;1.00;;;;;;4995555;28;20288;-65
2024/03/07 10:45:56;;;;;;;56.10;29.83;;;12.70;1.00;;;;;;4996640;28;20256;-65
2024/03/07 10:48:29;;;;;;;58.17;31.13;;;12.60;1.00;;;;;;4997340;28;20219;-65
2024/03/07 10:51:09;;;;;;;56.23;30.07;;;12.70;1.00;;;;;;4999901;28;20231;-65
2024/03/07 10:53:47;;;;;;;55.60;29.83;;;12.90;1.00;;;;;;4995704;28;20195;-65
2024/03/07 10:56:30;;;;;;;54.80;29.73;;;13.10;1.00;;;;;;4998495;28;20217;-65
2024/03/07 10:59:11;;;;;;;55.47;30.33;;;13.50;1.00;;;;;;5019866;28;20228;-65
2024/03/07 11:01:49;;;;;;;56.77;30.53;;;13.80;1.00;;;;;;5016148;28;20221;-65
2024/03/07 11:04:21;;;;;;;54.47;29.37;;;14.00;99.90;;;;;;5017080;28;20305;-65
2024/03/07 11:06:50;;;;;;;56.60;30.37;;;13.70;99.90;;;;;;5014739;28;20253;-65
2024/03/07 11:09:23;;;;;;;52.47;28.33;;;13.60;99.90;;;;;;5011970;28;20314;-65
2024/03/07 11:11:53;;;;;;;49.87;27.93;;;13.50;1.00;;;;;;5013019;28;20594;-65
2024/03/07 11:14:22;;;;;;;57.00;29.40;;;14.00;99.90;;;;;;5016929;28;20689;-65
2024/03/07 11:16:51;;;;;;;53.73;29.77;;;14.10;99.90;;;;;;4997990;28;20218;-65
2024/03/07 11:19:27;;;;;;;53.00;29.70;;;13.90;99.90;;;;;;4996840;28;20272;-65
2024/03/07 11:21:57;;;;;;;52.23;28.10;;;13.90;99.90;;;;;;4993920;28;20258;-65
2024/03/07 11:24:28;;;;;;;50.10;28.37;;;14.10;99.90;;;;;;4995006;28;20331;-65
2024/03/07 11:27:00;;;;;;;49.13;27.20;;;14.20;99.90;;;;;;4994680;28;20312;-65
2024/03/07 11:29:43;;;;;;;45.40;26.70;;;14.50;1.00;;;;;;5003606;28;20224;-65
2024/03/07 11:32:13;;;;;;;49.00;27.83;;;14.70;1.00;;;;;;4994858;28;20205;-65
2024/03/07 11:34:42;;;;;;;45.93;27.53;;;15.60;99.90;;;;;;4995416;28;20266;-65
2024/03/07 11:37:17;;;;;;;46.17;28.47;;;15.60;1.00;;;;;;4998630;28;20218;-65
2024/03/07 11:39:47;;;;;;;49.40;29.00;;;15.30;99.90;;;;;;4999607;28;20217;-65
2024/03/07 11:42:27;;;;;;;44.60;27.37;;;15.10;1.00;;;;;;4997741;28;20269;-65
2024/03/07 11:44:59;;;;;;;42.93;26.17;;;15.20;1.00;;;;;;4998969;28;20226;-65
2024/03/07 11:47:37;;;;;;;49.93;27.60;;;15.60;99.90;;;;;;4996158;28;20230;-65
2024/03/07 11:50:11;;;;;;;50.10;27.27;;;15.40;1.00;;;;;;5006161;28;20631;-65
2024/03/07 11:52:42;;;;;;;44.30;26.57;;;15.40;1.00;;;;;;4996743;28;20215;-65
2024/03/07 11:55:13;;;;;;;43.70;25.13;;;15.30;1.00;;;;;;4994719;28;20690;-65
2024/03/07 11:57:44;;;;;;;45.17;27.00;;;14.90;99.90;;;;;;4997870;28;20223;-65
2024/03/07 12:00:15;;;;;;;43.30;25.67;;;14.60;99.90;;;;;;4995260;28;20562;-65
2024/03/07 12:02:44;;;;;;;42.80;25.97;;;14.70;99.90;;;;;;4995466;28;20242;-65
2024/03/07 12:05:15;;;;;;;42.53;25.37;;;15.00;1.00;;;;;;4994754;28;20189;-65
2024/03/07 12:07:45;;;;;;;44.03;25.77;;;14.80;99.90;;;;;;4994858;28;20613;-65
2024/03/07 12:10:13;;;;;;;42.47;25.53;;;14.90;99.90;;;;;;4989461;28;20668;-64
2024/03/07 12:12:46;;;;;;;46.23;26.00;;;15.20;1.00;;;;;;5002179;28;20247;-65
2024/03/07 12:15:19;;;;;;;44.10;25.37;;;15.30;1.00;;;;;;5000096;28;20564;-65
2024/03/07 12:17:50;;;;;;;39.20;24.40;;;15.80;3.90;;;;;;4990638;28;20229;-65
2024/03/07 12:20:30;;;;;;;40.93;24.30;;;16.50;16.50;;;;;;4992991;28;20190;-65
2024/03/07 12:23:08;;;;;;;44.80;24.27;;;15.80;1.00;;;;;;4985913;28;20225;-65
2024/03/07 12:25:38;;;;;;;45.43;24.77;;;15.80;99.90;;;;;;4994530;28;20313;-65
2024/03/07 12:28:11;;;;;;;37.10;23.07;;;15.90;1.00;;;;;;4995579;28;20232;-65
2024/03/07 12:30:50;;;;;;;42.63;25.23;;;15.20;1.00;;;;;;4994710;28;20383;-65
2024/03/07 12:33:19;;;;;;;41.00;23.43;;;14.50;1.00;;;;;;5000491;28;20226;-65
2024/03/07 12:35:49;;;;;;;39.93;23.03;;;14.60;1.00;;;;;;4995573;28;20260;-65
2024/03/07 12:38:18;;;;;;;36.50;22.73;;;14.00;99.90;;;;;;4992589;28;20660;-64
2024/03/07 12:40:47;;;;;;;41.27;23.00;;;13.40;99.90;;;;;;4995316;28;20215;-65
2024/03/07 12:43:18;;;;;;;40.60;23.87;;;13.30;99.90;;;;;;4995913;28;20243;-65
2024/03/07 12:45:50;;;;;;;43.23;25.50;;;13.50;99.90;;;;;;4994122;28;20224;-64